Time,TemperatureF,DewpointF,PressureIn,WindDirection,WindDirectionDegrees,WindSpeedMPH,WindSpeedGustMPH,Humidity,HourlyPrecipIn,Conditions,Clouds,dailyrainin,SoftwareType,DateUTC
2013-01-03 00:02:00,39.9,35.4,30.25,SSE,157,0.0,-999.0,84,0.00,Sunny,,0.00,Open2300\PHP-WU,2013-01-03 05:02:00,
2013-01-03 00:08:00,39.9,35.4,30.25,SSE,157,0.0,-999.0,84,0.00,Sunny,,0.00,Open2300\PHP-WU,2013-01-03 05:08:00,
2013-01-03 00:15:00,39.9,35.4,30.24,SSE,157,0.0,-999.0,84,0.00,Sunny,,0.00,Open2300\PHP-WU,2013-01-03 05:15:00,
2013-01-03 00:21:00,39.9,35.4,30.25,SSE,157,0.0,-999.0,84,0.00,Sunny,,0.00,Open2300\PHP-WU,2013-01-03 05:21:00,
2013-01-03 00:27:00,39.9,35.4,30.25,SSE,157,0.0,-999.0,84,0.00,Sunny,,0.00,Open2300\PHP-WU,2013-01-03 05:27:00,
2013-01-03 00:33:00,39.9,35.4,30.25,SSE,157,0.0,-999.0,84,0.00,Sunny,,0.00,Open2300\PHP-WU,2013-01-03 05:33:00,
2013-01-03 00:39:00,39.9,35.4,30.25,SSE,157,0.0,-999.0,84,0.00,Sunny,,0.00,Open2300\PHP-WU,2013-01-03 05:39:00,
2013-01-03 00:45:00,39.9,35.4,30.25,SSE,157,0.0,-999.0,84,0.00,Sunny,,0.00,Open2300\PHP-WU,2013-01-03 05:45:00,
2013-01-03 00:51:00,39.9,35.4,30.25,SSE,157,0.0,-999.0,84,0.00,Sunny,,0.00,Open2300\PHP-WU,2013-01-03 05:51:00,
2013-01-03 00:57:00,39.9,35.4,30.25,SSE,157,0.0,-999.0,84,0.00,Sunny,,0.00,Open2300\PHP-WU,2013-01-03 05:57:00,
2013-01-03 01:03:00,39.9,35.4,30.24,SSE,157,0.0,-999.0,84,0.00,Sunny,,0.00,Open2300\PHP-WU,2013-01-03 06:03:00,
2013-01-03 01:09:00,39.9,35.4,30.23,SSE,157,0.0,-999.0,84,0.00,Sunny,,0.00,Open2300\PHP-WU,2013-01-03 06:09:00,
2013-01-03 01:15:00,39.9,35.4,30.22,SSE,157,0.0,-999.0,84,0.00,Sunny,,0.00,Open2300\PHP-WU,2013-01-03 06:15:00,
2013-01-03 01:21:00,39.7,35.3,30.22,SSE,157,0.0,-999.0,84,0.00,Sunny,,0.00,Open2300\PHP-WU,2013-01-03 06:21:00,
2013-01-03 01:27:00,39.7,35.3,30.22,SSE,157,0.0,-999.0,84,0.00,Sunny,,0.00,Open2300\PHP-WU,2013-01-03 06:27:00,
2013-01-03 01:33:00,39.7,35.3,30.22,SSE,157,0.0,-999.0,84,0.00,Sunny,,0.00,Open2300\PHP-WU,2013-01-03 06:33:00,
2013-01-03 01:39:00,39.6,35.1,30.23,SSE,157,0.0,-999.0,84,0.00,Sunny,,0.00,Open2300\PHP-WU,2013-01-03 06:39:00,
2013-01-03 01:45:00,39.6,35.1,30.22,SSE,157,0.0,-999.0,84,0.00,Sunny,,0.00,Open2300\PHP-WU,2013-01-03 06:45:00,
2013-01-03 01:51:00,39.7,35.3,30.23,SSE,157,0.0,-999.0,84,0.00,Sunny,,0.00,Open2300\PHP-WU,2013-01-03 06:51:00,
2013-01-03 01:57:00,39.7,35.3,30.24,SSE,157,0.0,-999.0,84,0.00,Sunny,,0.00,Open2300\PHP-WU,2013-01-03 06:57:00,
2013-01-03 02:03:00,39.7,35.3,30.23,SSE,157,0.0,-999.0,84,0.00,Sunny,,0.00,Open2300\PHP-WU,2013-01-03 07:03:00,
2013-01-03 02:09:00,39.7,35.6,30.24,SSE,157,0.0,-999.0,85,0.00,Sunny,,0.00,Open2300\PHP-WU,2013-01-03 07:09:00,
2013-01-03 02:15:00,39.7,35.6,30.23,SSE,157,0.0,-999.0,85,0.00,Sunny,,0.00,Open2300\PHP-WU,2013-01-03 07:15:00,
2013-01-03 02:21:00,39.7,35.6,30.23,SSE,157,0.0,-999.0,85,0.00,Sunny,,0.00,Open2300\PHP-WU,2013-01-03 07:21:00,
2013-01-03 02:27:00,39.7,35.6,30.24,SSE,157,0.0,-999.0,85,0.00,Sunny,,0.00,Open2300\PHP-WU,2013-01-03 07:27:00,
2013-01-03 02:33:00,39.7,35.6,30.24,SSE,157,0.0,-999.0,85,0.00,Sunny,,0.00,Open2300\PHP-WU,2013-01-03 07:33:00,
2013-01-03 02:39:00,39.7,35.6,30.26,SSE,157,0.0,-999.0,85,0.00,Sunny,,0.00,Open2300\PHP-WU,2013-01-03 07:39:00,
2013-01-03 02:45:00,39.7,35.6,30.25,SSE,157,0.0,-999.0,85,0.00,Sunny,,0.00,Open2300\PHP-WU,2013-01-03 07:45:00,
2013-01-03 02:51:00,39.7,35.6,30.25,SSE,157,0.0,-999.0,85,0.00,Sunny,,0.00,Open2300\PHP-WU,2013-01-03 07:51:00,
2013-01-03 02:57:00,39.7,35.6,30.25,SSE,157,0.0,-999.0,85,0.00,Sunny,,0.00,Open2300\PHP-WU,2013-01-03 07:57:00,
2013-01-03 03:03:00,39.7,35.6,30.24,SSE,157,0.0,-999.0,85,0.00,Sunny,,0.00,Open2300\PHP-WU,2013-01-03 08:03:00,
2013-01-03 03:09:00,39.7,35.6,30.24,SSE,157,0.0,-999.0,85,0.00,Sunny,,0.00,Open2300\PHP-WU,2013-01-03 08:09:00,
2013-01-03 03:15:00,39.7,35.6,30.24,SSE,157,0.0,-999.0,85,0.00,Sunny,,0.00,Open2300\PHP-WU,2013-01-03 08:15:00,
2013-01-03 03:21:00,39.7,35.6,30.24,SSE,157,0.0,-999.0,85,0.00,Sunny,,0.00,Open2300\PHP-WU,2013-01-03 08:21:00,
2013-01-03 03:27:00,39.7,35.6,30.24,SSE,157,0.0,-999.0,85,0.00,Sunny,,0.00,Open2300\PHP-WU,2013-01-03 08:27:00,
2013-01-03 03:33:00,39.7,35.6,30.24,SSE,157,0.0,-999.0,85,0.00,Sunny,,0.00,Open2300\PHP-WU,2013-01-03 08:33:00,
2013-01-03 03:39:00,39.7,35.6,30.25,SSE,157,0.0,-999.0,85,0.00,Sunny,,0.00,Open2300\PHP-WU,2013-01-03 08:39:00,
2013-01-03 03:45:00,39.7,35.6,30.25,SSE,157,0.0,-999.0,85,0.00,Sunny,,0.00,Open2300\PHP-WU,2013-01-03 08:45:00,
2013-01-03 03:51:00,39.7,35.6,30.25,SSE,157,0.0,-999.0,85,0.00,Sunny,,0.00,Open2300\PHP-WU,2013-01-03 08:51:00,
2013-01-03 03:56:00,39.7,35.6,30.23,SSE,157,0.0,-999.0,85,0.00,Sunny,,0.00,Open2300\PHP-WU,2013-01-03 08:56:00,
2013-01-03 04:03:00,39.7,35.6,30.24,SSE,157,0.0,-999.0,85,0.00,Sunny,,0.00,Open2300\PHP-WU,2013-01-03 09:03:00,
2013-01-03 04:09:00,39.7,35.6,30.23,SSE,157,0.0,-999.0,85,0.00,Sunny,,0.00,Open2300\PHP-WU,2013-01-03 09:09:00,
2013-01-03 04:15:00,39.6,35.4,30.22,SSE,157,0.0,-999.0,85,0.00,Sunny,,0.00,Open2300\PHP-WU,2013-01-03 09:15:00,
2013-01-03 04:20:00,39.6,35.4,30.23,SSE,157,0.0,-999.0,85,0.00,Sunny,,0.00,Open2300\PHP-WU,2013-01-03 09:20:00,
2013-01-03 04:27:00,39.6,35.4,30.23,SSE,157,0.0,-999.0,85,0.00,Sunny,,0.00,Open2300\PHP-WU,2013-01-03 09:27:00,
2013-01-03 04:32:00,39.6,35.4,30.24,SSE,157,0.0,-999.0,85,0.00,Sunny,,0.00,Open2300\PHP-WU,2013-01-03 09:32:00,
2013-01-03 04:38:00,39.6,35.4,30.23,SSE,157,0.0,-999.0,85,0.00,Sunny,,0.00,Open2300\PHP-WU,2013-01-03 09:38:00,
2013-01-03 04:44:00,39.6,35.4,30.24,SSE,157,0.0,-999.0,85,0.00,Sunny,,0.00,Open2300\PHP-WU,2013-01-03 09:44:00,
2013-01-03 04:51:00,39.6,35.4,30.23,SSE,157,0.0,-999.0,85,0.00,Sunny,,0.00,Open2300\PHP-WU,2013-01-03 09:51:00,
2013-01-03 04:57:00,39.6,35.4,30.23,SSE,157,0.0,-999.0,85,0.00,Sunny,,0.00,Open2300\PHP-WU,2013-01-03 09:57:00,
2013-01-03 05:03:00,39.6,35.4,30.23,SSE,157,0.0,-999.0,85,0.00,Sunny,,0.00,Open2300\PHP-WU,2013-01-03 10:03:00,
2013-01-03 05:08:00,39.6,35.4,30.23,SSE,157,0.0,-999.0,85,0.00,Sunny,,0.00,Open2300\PHP-WU,2013-01-03 10:08:00,
2013-01-03 05:14:00,39.6,35.4,30.23,SSE,157,0.0,-999.0,85,0.00,Sunny,,0.00,Open2300\PHP-WU,2013-01-03 10:14:00,
2013-01-03 05:20:00,39.6,35.4,30.24,SSE,157,0.0,-999.0,85,0.00,Sunny,,0.00,Open2300\PHP-WU,2013-01-03 10:20:00,
2013-01-03 05:26:00,39.4,35.2,30.25,SSE,157,0.0,-999.0,85,0.00,Sunny,,0.00,Open2300\PHP-WU,2013-01-03 10:26:00,
2013-01-03 05:32:00,39.6,35.4,30.25,SSE,157,0.0,-999.0,85,0.00,Sunny,,0.00,Open2300\PHP-WU,2013-01-03 10:32:00,
2013-01-03 05:38:00,39.6,35.4,30.25,SSE,157,0.0,-999.0,85,0.00,Sunny,,0.00,Open2300\PHP-WU,2013-01-03 10:38:00,
2013-01-03 05:44:00,39.6,35.4,30.24,SSE,157,0.0,-999.0,85,0.00,Sunny,,0.00,Open2300\PHP-WU,2013-01-03 10:44:00,
2013-01-03 05:50:00,39.4,35.2,30.24,SSE,157,0.0,-999.0,85,0.00,Sunny,,0.00,Open2300\PHP-WU,2013-01-03 10:50:00,
2013-01-03 05:56:00,39.4,35.2,30.24,SSE,157,0.0,-999.0,85,0.00,Sunny,,0.00,Open2300\PHP-WU,2013-01-03 10:56:00,
2013-01-03 06:02:00,39.4,35.2,30.23,SSE,157,0.0,-999.0,85,0.00,Sunny,,0.00,Open2300\PHP-WU,2013-01-03 11:02:00,
2013-01-03 06:08:00,39.4,35.2,30.24,SSE,157,0.0,-999.0,85,0.00,Sunny,,0.00,Open2300\PHP-WU,2013-01-03 11:08:00,
2013-01-03 06:14:00,39.4,35.2,30.25,SSE,157,0.0,-999.0,85,0.00,Sunny,,0.00,Open2300\PHP-WU,2013-01-03 11:14:00,
2013-01-03 06:20:00,39.4,35.2,30.25,SSE,157,0.0,-999.0,85,0.00,Sunny,,0.00,Open2300\PHP-WU,2013-01-03 11:20:00,
2013-01-03 06:26:00,39.4,35.2,30.25,SSE,157,0.0,-999.0,85,0.00,Sunny,,0.00,Open2300\PHP-WU,2013-01-03 11:26:00,
2013-01-03 06:32:00,39.4,35.2,30.25,SSE,157,0.0,-999.0,85,0.00,Sunny,,0.00,Open2300\PHP-WU,2013-01-03 11:32:00,
2013-01-03 06:38:00,39.4,35.2,30.25,SSE,157,0.0,-999.0,85,0.00,Sunny,,0.00,Open2300\PHP-WU,2013-01-03 11:38:00,
2013-01-03 06:44:00,39.4,35.2,30.26,SSE,157,0.0,-999.0,85,0.00,Sunny,,0.00,Open2300\PHP-WU,2013-01-03 11:44:00,
2013-01-03 06:50:00,39.4,35.2,30.26,SSE,157,0.0,-999.0,85,0.00,Sunny,,0.00,Open2300\PHP-WU,2013-01-03 11:50:00,
2013-01-03 06:56:00,39.4,35.2,30.27,SSE,157,0.0,-999.0,85,0.00,Sunny,,0.00,Open2300\PHP-WU,2013-01-03 11:56:00,
2013-01-03 07:02:00,39.4,35.2,30.27,SSE,157,0.0,-999.0,85,0.00,Sunny,,0.00,Open2300\PHP-WU,2013-01-03 12:02:00,
2013-01-03 07:08:00,39.4,35.2,30.27,SSE,157,0.0,-999.0,85,0.00,Sunny,,0.00,Open2300\PHP-WU,2013-01-03 12:08:00,
2013-01-03 07:14:00,39.4,35.2,30.26,SSE,157,0.0,-999.0,85,0.00,Sunny,,0.00,Open2300\PHP-WU,2013-01-03 12:14:00,
2013-01-03 07:20:00,39.4,35.2,30.27,SSE,157,0.0,-999.0,85,0.00,Sunny,,0.00,Open2300\PHP-WU,2013-01-03 12:20:00,
2013-01-03 07:26:00,39.4,35.2,30.27,SSE,157,0.0,-999.0,85,0.00,Sunny,,0.00,Open2300\PHP-WU,2013-01-03 12:26:00,
2013-01-03 07:32:00,39.4,35.2,30.27,SSE,157,0.0,-999.0,85,0.00,Sunny,,0.00,Open2300\PHP-WU,2013-01-03 12:32:00,
2013-01-03 07:38:00,39.4,35.2,30.27,SSE,157,0.0,-999.0,85,0.00,Sunny,,0.00,Open2300\PHP-WU,2013-01-03 12:38:00,
2013-01-03 07:44:00,39.4,35.2,30.27,North,0,0.0,-999.0,85,0.00,Sunny,,0.00,Open2300\PHP-WU,2013-01-03 12:44:00,
2013-01-03 07:50:00,39.4,34.9,30.27,NNW,337,0.0,-999.0,84,0.00,Sunny,,0.00,Open2300\PHP-WU,2013-01-03 12:50:00,
2013-01-03 07:56:00,39.4,34.9,30.27,North,0,0.0,-999.0,84,0.00,Sunny,,0.00,Open2300\PHP-WU,2013-01-03 12:56:00,
2013-01-03 08:02:00,39.4,34.9,30.27,NNW,337,0.0,-999.0,84,0.00,Sunny,,0.00,Open2300\PHP-WU,2013-01-03 13:02:00,
2013-01-03 08:08:00,39.4,34.9,30.27,East,90,0.0,-999.0,84,0.00,Sunny,,0.00,Open2300\PHP-WU,2013-01-03 13:08:00,
2013-01-03 08:14:00,39.4,34.9,30.27,NNE,22,0.0,-999.0,84,0.00,Sunny,,0.00,Open2300\PHP-WU,2013-01-03 13:14:00,
2013-01-03 08:20:00,39.4,34.9,30.27,NNE,22,0.0,-999.0,84,0.00,Sunny,,0.00,Open2300\PHP-WU,2013-01-03 13:20:00,
2013-01-03 08:26:00,39.4,34.9,30.28,NNE,22,0.0,-999.0,84,0.00,Sunny,,0.00,Open2300\PHP-WU,2013-01-03 13:26:00,
2013-01-03 08:32:00,39.4,34.9,30.27,NNE,22,0.0,-999.0,84,0.00,Sunny,,0.00,Open2300\PHP-WU,2013-01-03 13:32:00,
2013-01-03 08:38:00,39.6,35.1,30.27,North,0,0.0,-999.0,84,0.00,Sunny,,0.00,Open2300\PHP-WU,2013-01-03 13:38:00,
2013-01-03 08:44:00,39.7,35.3,30.27,South,180,0.0,-999.0,84,0.00,Sunny,,0.00,Open2300\PHP-WU,2013-01-03 13:44:00,
2013-01-03 08:50:00,39.7,35.3,30.28,North,0,0.0,-999.0,84,0.00,Sunny,,0.00,Open2300\PHP-WU,2013-01-03 13:50:00,
2013-01-03 08:56:00,39.6,34.8,30.29,NNW,337,0.0,-999.0,83,0.00,Sunny,,0.00,Open2300\PHP-WU,2013-01-03 13:56:00,
2013-01-03 09:02:00,39.6,34.8,30.29,North,0,0.0,-999.0,83,0.00,Sunny,,0.00,Open2300\PHP-WU,2013-01-03 14:02:00,
2013-01-03 09:08:00,39.7,35.0,30.28,West,270,0.0,-999.0,83,0.00,Sunny,,0.00,Open2300\PHP-WU,2013-01-03 14:08:00,
2013-01-03 09:14:00,39.7,35.0,30.29,South,180,0.0,-999.0,83,0.00,Sunny,,0.00,Open2300\PHP-WU,2013-01-03 14:14:00,
2013-01-03 09:20:00,39.9,34.8,30.29,NNE,22,0.0,-999.0,82,0.00,Sunny,,0.00,Open2300\PHP-WU,2013-01-03 14:20:00,
2013-01-03 09:26:00,39.9,34.8,30.29,NNW,337,0.0,-999.0,82,0.00,Sunny,,0.00,Open2300\PHP-WU,2013-01-03 14:26:00,
2013-01-03 09:32:00,39.9,34.8,30.29,NNW,337,0.0,-999.0,82,0.00,Sunny,,0.00,Open2300\PHP-WU,2013-01-03 14:32:00,
2013-01-03 09:38:00,40.1,35.0,30.30,NNW,337,0.0,-999.0,82,0.00,Sunny,,0.00,Open2300\PHP-WU,2013-01-03 14:38:00,
2013-01-03 09:44:00,40.1,34.7,30.30,NNE,22,0.0,-999.0,81,0.00,Sunny,,0.00,Open2300\PHP-WU,2013-01-03 14:44:00,
2013-01-03 09:50:00,40.5,35.0,30.29,SSE,157,0.0,-999.0,81,0.00,Sunny,,0.00,Open2300\PHP-WU,2013-01-03 14:50:00,
2013-01-03 09:56:00,40.8,35.4,30.30,SSW,202,0.0,-999.0,81,0.00,Sunny,,0.00,Open2300\PHP-WU,2013-01-03 14:56:00,
2013-01-03 10:02:00,40.8,35.1,30.30,SE,135,0.0,-999.0,80,0.00,Sunny,,0.00,Open2300\PHP-WU,2013-01-03 15:02:00,
2013-01-03 10:08:00,41.0,35.2,30.30,South,180,0.0,-999.0,80,0.00,Sunny,,0.00,Open2300\PHP-WU,2013-01-03 15:08:00,
2013-01-03 10:14:00,41.2,35.4,30.30,South,180,0.0,-999.0,80,0.00,Sunny,,0.00,Open2300\PHP-WU,2013-01-03 15:14:00,
2013-01-03 10:20:00,41.5,35.5,30.30,NNW,337,0.0,-999.0,79,0.00,Sunny,,0.00,Open2300\PHP-WU,2013-01-03 15:20:00,
2013-01-03 10:26:00,41.4,35.3,30.31,North,0,0.0,-999.0,79,0.00,Sunny,,0.00,Open2300\PHP-WU,2013-01-03 15:26:00,
2013-01-03 10:32:00,41.4,35.3,30.30,North,0,0.0,-999.0,79,0.00,Sunny,,0.00,Open2300\PHP-WU,2013-01-03 15:32:00,
2013-01-03 10:38:00,41.4,35.0,30.30,North,0,0.0,-999.0,78,0.00,Sunny,,0.00,Open2300\PHP-WU,2013-01-03 15:38:00,
2013-01-03 10:44:00,41.5,35.5,30.30,North,0,0.0,-999.0,79,0.00,Sunny,,0.00,Open2300\PHP-WU,2013-01-03 15:44:00,
2013-01-03 10:50:00,41.9,35.5,30.30,North,0,0.0,-999.0,78,0.00,Sunny,,0.00,Open2300\PHP-WU,2013-01-03 15:50:00,
2013-01-03 10:56:00,41.9,35.2,30.30,North,0,0.0,-999.0,77,0.00,Sunny,,0.00,Open2300\PHP-WU,2013-01-03 15:56:00,
2013-01-03 11:02:00,42.1,35.3,30.30,NNW,337,0.0,-999.0,77,0.00,Sunny,,0.00,Open2300\PHP-WU,2013-01-03 16:02:00,
2013-01-03 11:08:00,42.4,35.7,30.30,NNW,337,0.0,-999.0,77,0.00,Sunny,,0.00,Open2300\PHP-WU,2013-01-03 16:08:00,
2013-01-03 11:14:00,42.6,35.9,30.29,North,0,0.0,-999.0,77,0.00,Sunny,,0.00,Open2300\PHP-WU,2013-01-03 16:14:00,
2013-01-03 11:20:00,43.5,36.4,30.28,North,0,0.0,-999.0,76,0.00,Sunny,,0.00,Open2300\PHP-WU,2013-01-03 16:20:00,
2013-01-03 11:26:00,44.4,37.0,30.27,WSW,247,0.0,-999.0,75,0.00,Sunny,,0.00,Open2300\PHP-WU,2013-01-03 16:26:00,
2013-01-03 11:32:00,45.7,38.2,30.28,West,270,0.0,-999.0,75,0.00,Sunny,,0.00,Open2300\PHP-WU,2013-01-03 16:32:00,
2013-01-03 11:38:00,45.7,37.5,30.27,ENE,67,0.0,-999.0,73,0.00,Sunny,,0.00,Open2300\PHP-WU,2013-01-03 16:38:00,
2013-01-03 11:44:00,45.1,36.6,30.27,NE,45,0.0,-999.0,72,0.00,Sunny,,0.00,Open2300\PHP-WU,2013-01-03 16:44:00,
2013-01-03 11:50:00,45.0,36.5,30.27,SW,225,0.0,-999.0,72,0.00,Sunny,,0.00,Open2300\PHP-WU,2013-01-03 16:50:00,
2013-01-03 11:56:00,45.1,37.0,30.27,North,0,0.0,-999.0,73,0.00,Sunny,,0.00,Open2300\PHP-WU,2013-01-03 16:56:00,
2013-01-03 12:02:00,45.0,36.5,30.27,NNE,22,0.0,-999.0,72,0.00,Sunny,,0.00,Open2300\PHP-WU,2013-01-03 17:02:00,
2013-01-03 12:08:00,45.1,36.3,30.26,South,180,0.0,-999.0,71,0.00,Sunny,,0.00,Open2300\PHP-WU,2013-01-03 17:08:00,
2013-01-03 12:15:00,45.3,36.5,30.25,South,180,0.0,-999.0,71,0.00,Sunny,,0.00,Open2300\PHP-WU,2013-01-03 17:15:00,
2013-01-03 12:21:00,45.5,36.7,30.25,North,0,0.0,-999.0,71,0.00,Sunny,,0.00,Open2300\PHP-WU,2013-01-03 17:21:00,
2013-01-03 12:27:00,45.5,36.3,30.25,NNW,337,0.0,-999.0,70,0.00,Sunny,,0.00,Open2300\PHP-WU,2013-01-03 17:27:00,
2013-01-03 12:33:00,46.0,36.9,30.24,North,0,0.0,-999.0,70,0.00,Sunny,,0.00,Open2300\PHP-WU,2013-01-03 17:33:00,
2013-01-03 12:39:00,46.6,37.0,30.24,SSE,157,0.0,-999.0,69,0.00,Sunny,,0.00,Open2300\PHP-WU,2013-01-03 17:39:00,
2013-01-03 12:45:00,47.1,37.5,30.24,SSE,157,0.0,-999.0,69,0.00,Sunny,,0.00,Open2300\PHP-WU,2013-01-03 17:45:00,
2013-01-03 12:51:00,47.7,37.2,30.24,ESE,112,0.0,-999.0,67,0.00,Sunny,,0.00,Open2300\PHP-WU,2013-01-03 17:51:00,
2013-01-03 12:57:00,47.8,37.4,30.24,North,0,0.0,-999.0,67,0.00,Sunny,,0.00,Open2300\PHP-WU,2013-01-03 17:57:00,
2013-01-03 13:03:00,47.8,37.0,30.23,SSE,157,0.0,-999.0,66,0.00,Sunny,,0.00,Open2300\PHP-WU,2013-01-03 18:03:00,
2013-01-03 13:09:00,48.0,37.1,30.23,SSE,157,0.0,-999.0,66,0.00,Sunny,,0.00,Open2300\PHP-WU,2013-01-03 18:09:00,
2013-01-03 13:15:00,48.6,37.3,30.22,East,90,0.0,-999.0,65,0.00,Sunny,,0.00,Open2300\PHP-WU,2013-01-03 18:15:00,
2013-01-03 13:21:00,48.7,37.1,30.23,SE,135,0.0,-999.0,64,0.00,Sunny,,0.00,Open2300\PHP-WU,2013-01-03 18:21:00,
2013-01-03 13:27:00,48.9,36.9,30.23,SSE,157,0.0,-999.0,63,0.00,Sunny,,0.00,Open2300\PHP-WU,2013-01-03 18:27:00,
2013-01-03 13:33:00,49.6,37.9,30.23,West,270,0.0,-999.0,64,0.00,Sunny,,0.00,Open2300\PHP-WU,2013-01-03 18:33:00,
2013-01-03 13:39:00,49.8,37.3,30.23,WSW,247,0.0,-999.0,62,0.00,Sunny,,0.00,Open2300\PHP-WU,2013-01-03 18:39:00,
2013-01-03 13:45:00,49.8,37.3,30.23,WSW,247,0.0,-999.0,62,0.00,Sunny,,0.00,Open2300\PHP-WU,2013-01-03 18:45:00,
2013-01-03 13:51:00,49.6,37.1,30.23,WSW,247,0.0,-999.0,62,0.00,Sunny,,0.00,Open2300\PHP-WU,2013-01-03 18:51:00,
2013-01-03 13:57:00,48.9,36.1,30.23,North,0,0.0,-999.0,61,0.00,Sunny,,0.00,Open2300\PHP-WU,2013-01-03 18:57:00,
2013-01-03 14:03:00,48.2,36.2,30.23,West,270,0.0,-999.0,63,0.00,Sunny,,0.00,Open2300\PHP-WU,2013-01-03 19:03:00,
2013-01-03 14:09:00,48.0,36.0,30.23,WSW,247,0.0,-999.0,63,0.00,Sunny,,0.00,Open2300\PHP-WU,2013-01-03 19:09:00,
2013-01-03 14:15:00,48.0,36.0,30.23,WSW,247,0.0,-999.0,63,0.00,Sunny,,0.00,Open2300\PHP-WU,2013-01-03 19:15:00,
2013-01-03 14:57:00,45.0,34.6,30.23,North,0,0.0,-999.0,67,0.00,Sunny,,0.00,Open2300\PHP-WU,2013-01-03 19:57:00,
2013-01-03 15:03:00,44.8,34.8,30.24,North,0,0.0,-999.0,68,0.00,Sunny,,0.00,Open2300\PHP-WU,2013-01-03 20:03:00,
2013-01-03 15:09:00,44.4,34.5,30.24,North,0,0.0,-999.0,68,0.00,Sunny,,0.00,Open2300\PHP-WU,2013-01-03 20:09:00,
2013-01-03 15:15:00,44.4,34.5,30.25,North,0,0.0,-999.0,68,0.00,Sunny,,0.00,Open2300\PHP-WU,2013-01-03 20:15:00,
2013-01-03 15:21:00,44.2,34.3,30.25,NE,45,0.0,-999.0,68,0.00,Sunny,,0.00,Open2300\PHP-WU,2013-01-03 20:21:00,
2013-01-03 15:27:00,44.2,34.7,30.25,North,0,0.0,-999.0,69,0.00,Sunny,,0.00,Open2300\PHP-WU,2013-01-03 20:27:00,
2013-01-03 15:33:00,44.2,34.7,30.25,NE,45,0.0,-999.0,69,0.00,Sunny,,0.00,Open2300\PHP-WU,2013-01-03 20:33:00,
2013-01-03 15:39:00,43.9,34.8,30.25,North,0,0.0,-999.0,70,0.00,Sunny,,0.00,Open2300\PHP-WU,2013-01-03 20:39:00,
2013-01-03 15:44:00,43.7,34.6,30.26,NNE,22,0.0,-999.0,70,0.00,Sunny,,0.00,Open2300\PHP-WU,2013-01-03 20:44:00,
2013-01-03 15:50:00,43.5,34.4,30.26,North,0,0.0,-999.0,70,0.00,Sunny,,0.00,Open2300\PHP-WU,2013-01-03 20:50:00,
2013-01-03 15:57:00,43.5,34.4,30.26,NW,315,0.0,-999.0,70,0.00,Sunny,,0.00,Open2300\PHP-WU,2013-01-03 20:57:00,
2013-01-03 16:03:00,43.2,34.4,30.27,North,0,0.0,-999.0,71,0.00,Sunny,,0.00,Open2300\PHP-WU,2013-01-03 21:03:00,
2013-01-03 16:08:00,43.0,34.6,30.27,North,0,0.0,-999.0,72,0.00,Sunny,,0.00,Open2300\PHP-WU,2013-01-03 21:08:00,
2013-01-03 16:14:00,42.6,34.3,30.27,North,0,0.0,-999.0,72,0.00,Sunny,,0.00,Open2300\PHP-WU,2013-01-03 21:14:00,
2013-01-03 16:21:00,42.6,34.6,30.27,North,0,0.0,-999.0,73,0.00,Sunny,,0.00,Open2300\PHP-WU,2013-01-03 21:21:00,
2013-01-03 16:26:00,42.6,34.6,30.27,North,0,0.0,-999.0,73,0.00,Sunny,,0.00,Open2300\PHP-WU,2013-01-03 21:26:00,
2013-01-03 16:32:00,42.4,34.7,30.27,North,0,0.0,-999.0,74,0.00,Sunny,,0.00,Open2300\PHP-WU,2013-01-03 21:32:00,
2013-01-03 16:38:00,42.1,34.4,30.27,NW,315,0.0,-999.0,74,0.00,Sunny,,0.00,Open2300\PHP-WU,2013-01-03 21:38:00,
2013-01-03 16:44:00,42.1,34.4,30.27,North,0,0.0,-999.0,74,0.00,Sunny,,0.00,Open2300\PHP-WU,2013-01-03 21:44:00,
2013-01-03 16:50:00,41.9,34.2,30.27,NNE,22,0.0,-999.0,74,0.00,Sunny,,0.00,Open2300\PHP-WU,2013-01-03 21:50:00,
2013-01-03 16:56:00,41.9,34.5,30.27,North,0,0.0,-999.0,75,0.00,Sunny,,0.00,Open2300\PHP-WU,2013-01-03 21:56:00,
2013-01-03 17:03:00,41.9,34.5,30.27,NNW,337,0.0,-999.0,75,0.00,Sunny,,0.00,Open2300\PHP-WU,2013-01-03 22:03:00,
2013-01-03 17:08:00,41.7,34.3,30.27,North,0,0.0,-999.0,75,0.00,Sunny,,0.00,Open2300\PHP-WU,2013-01-03 22:08:00,
2013-01-03 17:15:00,41.7,34.3,30.27,North,0,0.0,-999.0,75,0.00,Sunny,,0.00,Open2300\PHP-WU,2013-01-03 22:15:00,
2013-01-03 17:20:00,41.5,34.5,30.28,North,0,0.0,-999.0,76,0.00,Sunny,,0.00,Open2300\PHP-WU,2013-01-03 22:20:00,
2013-01-03 17:26:00,41.5,34.5,30.27,North,0,0.0,-999.0,76,0.00,Sunny,,0.00,Open2300\PHP-WU,2013-01-03 22:26:00,
2013-01-03 17:32:00,41.5,34.5,30.28,North,0,0.0,-999.0,76,0.00,Sunny,,0.00,Open2300\PHP-WU,2013-01-03 22:32:00,
2013-01-03 17:38:00,41.4,34.6,30.28,North,0,0.0,-999.0,77,0.00,Sunny,,0.00,Open2300\PHP-WU,2013-01-03 22:38:00,
2013-01-03 17:44:00,41.4,34.6,30.28,North,0,0.0,-999.0,77,0.00,Sunny,,0.00,Open2300\PHP-WU,2013-01-03 22:44:00,
2013-01-03 17:50:00,41.2,34.4,30.29,North,0,0.0,-999.0,77,0.00,Sunny,,0.00,Open2300\PHP-WU,2013-01-03 22:50:00,
2013-01-03 17:56:00,41.2,34.4,30.29,NNW,337,0.0,-999.0,77,0.00,Sunny,,0.00,Open2300\PHP-WU,2013-01-03 22:56:00,
2013-01-03 18:02:00,41.2,34.8,30.29,NE,45,0.0,-999.0,78,0.00,Sunny,,0.00,Open2300\PHP-WU,2013-01-03 23:02:00,
2013-01-03 18:08:00,40.8,34.4,30.29,North,0,0.0,-999.0,78,0.00,Sunny,,0.00,Open2300\PHP-WU,2013-01-03 23:08:00,
2013-01-03 18:14:00,40.8,34.4,30.30,North,0,0.0,-999.0,78,0.00,Sunny,,0.00,Open2300\PHP-WU,2013-01-03 23:14:00,
2013-01-03 18:20:00,40.6,34.3,30.29,North,0,0.0,-999.0,78,0.00,Sunny,,0.00,Open2300\PHP-WU,2013-01-03 23:20:00,
2013-01-03 18:26:00,40.1,33.8,30.30,North,0,0.0,-999.0,78,0.00,Sunny,,0.00,Open2300\PHP-WU,2013-01-03 23:26:00,
2013-01-03 18:32:00,39.7,33.4,30.30,North,0,0.0,-999.0,78,0.00,Sunny,,0.00,Open2300\PHP-WU,2013-01-03 23:32:00,
2013-01-03 18:38:00,39.4,33.1,30.30,North,0,0.0,-999.0,78,0.00,Sunny,,0.00,Open2300\PHP-WU,2013-01-03 23:38:00,
2013-01-03 18:44:00,39.0,33.1,30.30,North,0,0.0,-999.0,79,0.00,Sunny,,0.00,Open2300\PHP-WU,2013-01-03 23:44:00,
2013-01-03 18:50:00,38.5,32.6,30.30,North,0,0.0,-999.0,79,0.00,Sunny,,0.00,Open2300\PHP-WU,2013-01-03 23:50:00,
2013-01-03 18:56:00,38.1,32.2,30.30,North,0,0.0,-999.0,79,0.00,Sunny,,0.00,Open2300\PHP-WU,2013-01-03 23:56:00,
2013-01-03 19:02:00,37.8,31.8,30.30,North,0,0.0,-999.0,79,0.00,Sunny,,0.00,Open2300\PHP-WU,2013-01-04 00:02:00,
2013-01-03 19:08:00,37.2,31.6,30.30,North,0,0.0,-999.0,80,0.00,Sunny,,0.00,Open2300\PHP-WU,2013-01-04 00:08:00,
2013-01-03 19:14:00,37.2,31.6,30.30,North,0,0.0,-999.0,80,0.00,Sunny,,0.00,Open2300\PHP-WU,2013-01-04 00:14:00,
2013-01-03 19:20:00,36.7,31.1,30.31,North,0,0.0,-999.0,80,0.00,Sunny,,0.00,Open2300\PHP-WU,2013-01-04 00:20:00,
2013-01-03 19:26:00,36.3,31.0,30.31,North,0,0.0,-999.0,81,0.00,Sunny,,0.00,Open2300\PHP-WU,2013-01-04 00:26:00,
2013-01-03 19:32:00,36.0,30.7,30.31,North,0,0.0,-999.0,81,0.00,Sunny,,0.00,Open2300\PHP-WU,2013-01-04 00:32:00,
2013-01-03 19:38:00,35.4,30.1,30.30,North,0,0.0,-999.0,81,0.00,Sunny,,0.00,Open2300\PHP-WU,2013-01-04 00:38:00,
2013-01-03 19:44:00,35.2,29.9,30.31,North,0,0.0,-999.0,81,0.00,Sunny,,0.00,Open2300\PHP-WU,2013-01-04 00:44:00,
2013-01-03 19:50:00,34.9,29.6,30.30,North,0,0.0,-999.0,81,0.00,Sunny,,0.00,Open2300\PHP-WU,2013-01-04 00:50:00,
2013-01-03 19:56:00,34.5,29.2,30.31,North,0,0.0,-999.0,81,0.00,Sunny,,0.00,Open2300\PHP-WU,2013-01-04 00:56:00,
2013-01-03 20:02:00,34.3,29.3,30.31,North,0,0.0,-999.0,82,0.00,Sunny,,0.00,Open2300\PHP-WU,2013-01-04 01:02:00,
2013-01-03 20:08:00,34.2,29.2,30.31,North,0,0.0,-999.0,82,0.00,Sunny,,0.00,Open2300\PHP-WU,2013-01-04 01:08:00,
2013-01-03 20:14:00,33.8,28.8,30.31,North,0,0.0,-999.0,82,0.00,Sunny,,0.00,Open2300\PHP-WU,2013-01-04 01:14:00,
2013-01-03 20:20:00,33.4,28.5,30.32,North,0,0.0,-999.0,82,0.00,Sunny,,0.00,Open2300\PHP-WU,2013-01-04 01:20:00,
2013-01-03 20:26:00,33.1,28.1,30.32,North,0,0.0,-999.0,82,0.00,Sunny,,0.00,Open2300\PHP-WU,2013-01-04 01:26:00,
2013-01-03 20:32:00,32.7,27.8,30.32,North,0,0.0,-999.0,82,0.00,Sunny,,0.00,Open2300\PHP-WU,2013-01-04 01:32:00,
2013-01-03 20:38:00,32.4,27.8,30.32,North,0,0.0,-999.0,83,0.00,Sunny,,0.00,Open2300\PHP-WU,2013-01-04 01:38:00,
2013-01-03 20:44:00,32.2,27.6,30.32,North,0,0.0,-999.0,83,0.00,Sunny,,0.00,Open2300\PHP-WU,2013-01-04 01:44:00,
2013-01-03 20:50:00,31.8,27.3,30.32,North,0,0.0,-999.0,83,0.00,Sunny,,0.00,Open2300\PHP-WU,2013-01-04 01:50:00,
2013-01-03 20:56:00,31.6,27.1,30.32,North,0,0.0,-999.0,83,0.00,Sunny,,0.00,Open2300\PHP-WU,2013-01-04 01:56:00,
2013-01-03 21:02:00,31.1,26.6,30.32,North,0,0.0,-999.0,83,0.00,Sunny,,0.00,Open2300\PHP-WU,2013-01-04 02:02:00,
2013-01-03 21:08:00,30.9,26.4,30.32,North,0,0.0,-999.0,83,0.00,Sunny,,0.00,Open2300\PHP-WU,2013-01-04 02:08:00,
2013-01-03 21:14:00,30.7,26.2,30.32,North,0,0.0,-999.0,83,0.00,Sunny,,0.00,Open2300\PHP-WU,2013-01-04 02:14:00,
2013-01-03 21:20:00,30.4,25.8,30.32,North,0,0.0,-999.0,83,0.00,Sunny,,0.00,Open2300\PHP-WU,2013-01-04 02:20:00,
2013-01-03 21:26:00,30.2,25.7,30.32,North,0,0.0,-999.0,83,0.00,Sunny,,0.00,Open2300\PHP-WU,2013-01-04 02:26:00,
2013-01-03 21:32:00,30.0,25.5,30.32,North,0,0.0,-999.0,83,0.00,Sunny,,0.00,Open2300\PHP-WU,2013-01-04 02:32:00,
2013-01-03 21:38:00,29.8,25.3,30.32,North,0,0.0,-999.0,83,0.00,Sunny,,0.00,Open2300\PHP-WU,2013-01-04 02:38:00,
2013-01-03 21:44:00,29.7,25.1,30.32,North,0,0.0,-999.0,83,0.00,Sunny,,0.00,Open2300\PHP-WU,2013-01-04 02:44:00,
2013-01-03 21:50:00,29.5,25.2,30.33,North,0,0.0,-999.0,84,0.00,Sunny,,0.00,Open2300\PHP-WU,2013-01-04 02:50:00,
2013-01-03 21:56:00,29.1,24.9,30.33,North,0,0.0,-999.0,84,0.00,Sunny,,0.00,Open2300\PHP-WU,2013-01-04 02:56:00,
2013-01-03 22:02:00,29.1,24.9,30.32,North,0,0.0,-999.0,84,0.00,Sunny,,0.00,Open2300\PHP-WU,2013-01-04 03:02:00,
2013-01-03 22:08:00,28.9,24.7,30.32,North,0,0.0,-999.0,84,0.00,Sunny,,0.00,Open2300\PHP-WU,2013-01-04 03:08:00,
2013-01-03 22:14:00,28.8,24.5,30.32,North,0,0.0,-999.0,84,0.00,Sunny,,0.00,Open2300\PHP-WU,2013-01-04 03:14:00,
2013-01-03 22:20:00,28.6,24.3,30.32,North,0,0.0,-999.0,84,0.00,Sunny,,0.00,Open2300\PHP-WU,2013-01-04 03:20:00,
2013-01-03 22:26:00,28.6,24.3,30.32,North,0,0.0,-999.0,84,0.00,Sunny,,0.00,Open2300\PHP-WU,2013-01-04 03:26:00,
2013-01-03 22:32:00,28.2,24.0,30.32,North,0,0.0,-999.0,84,0.00,Sunny,,0.00,Open2300\PHP-WU,2013-01-04 03:32:00,
2013-01-03 22:38:00,28.2,24.0,30.32,North,0,0.0,-999.0,84,0.00,Sunny,,0.00,Open2300\PHP-WU,2013-01-04 03:38:00,
2013-01-03 22:44:00,28.0,23.8,30.33,North,0,0.0,-999.0,84,0.00,Sunny,,0.00,Open2300\PHP-WU,2013-01-04 03:44:00,
2013-01-03 22:50:00,28.0,24.1,30.33,North,0,0.0,-999.0,85,0.00,Sunny,,0.00,Open2300\PHP-WU,2013-01-04 03:50:00,
2013-01-03 22:56:00,27.7,23.4,30.33,North,0,0.0,-999.0,84,0.00,Sunny,,0.00,Open2300\PHP-WU,2013-01-04 03:56:00,
2013-01-03 23:02:00,27.7,23.4,30.33,North,0,0.0,-999.0,84,0.00,Sunny,,0.00,Open2300\PHP-WU,2013-01-04 04:02:00,
2013-01-03 23:08:00,27.5,23.3,30.33,North,0,0.0,-999.0,84,0.00,Sunny,,0.00,Open2300\PHP-WU,2013-01-04 04:08:00,
2013-01-03 23:14:00,27.5,23.3,30.33,North,0,0.0,-999.0,84,0.00,Sunny,,0.00,Open2300\PHP-WU,2013-01-04 04:14:00,
2013-01-03 23:20:00,27.3,23.1,30.33,North,0,0.0,-999.0,84,0.00,Sunny,,0.00,Open2300\PHP-WU,2013-01-04 04:20:00,
2013-01-03 23:26:00,27.3,23.4,30.33,North,0,0.0,-999.0,85,0.00,Sunny,,0.00,Open2300\PHP-WU,2013-01-04 04:26:00,
2013-01-03 23:32:00,27.3,23.4,30.33,North,0,0.0,-999.0,85,0.00,Sunny,,0.00,Open2300\PHP-WU,2013-01-04 04:32:00,
2013-01-03 23:38:00,27.1,23.2,30.33,North,0,0.0,-999.0,85,0.00,Sunny,,0.00,Open2300\PHP-WU,2013-01-04 04:38:00,
2013-01-03 23:44:00,27.1,23.2,30.34,North,0,0.0,-999.0,85,0.00,Sunny,,0.00,Open2300\PHP-WU,2013-01-04 04:44:00,
2013-01-03 23:50:00,27.0,23.0,30.33,North,0,0.0,-999.0,85,0.00,Sunny,,0.00,Open2300\PHP-WU,2013-01-04 04:50:00,
2013-01-03 23:56:00,26.8,22.8,30.33,North,0,0.0,-999.0,85,0.00,Sunny,,0.00,Open2300\PHP-WU,2013-01-04 04:56:00,